Time;durP1;ratioP1;P1;durP2;ratioP2;P2;SDS_P1;SDS_P2;PMS_P1;PMS_P2;Temp;Humidity;BMP_temperature;BMP_pressure;BME280_temperature;BME280_humidity;BME280_pressure;Samples;Min_cycle;Max_cycle;Signal;HPM_P1;HPM_P2
2023/05/30 00:02:22;;;;;;;9.50;4.13;;;11.00;99.90;;;;;;4997267;28;20531;-64
2023/05/30 00:04:51;;;;;;;11.70;4.60;;;10.90;99.90;;;;;;5001299;28;20989;-64
2023/05/30 00:07:19;;;;;;;9.60;4.53;;;10.90;99.90;;;;;;4999663;28;20931;-65
2023/05/30 00:09:47;;;;;;;11.37;4.40;;;10.90;99.90;;;;;;4999203;28;20980;-64
2023/05/30 00:12:16;;;;;;;8.80;4.60;;;10.90;99.90;;;;;;4994406;28;20620;-64
2023/05/30 00:14:44;;;;;;;13.67;4.80;;;10.90;99.90;;;;;;4995916;28;20496;-64
2023/05/30 00:17:14;;;;;;;8.47;4.23;;;10.80;99.90;;;;;;4990516;28;20472;-65
2023/05/30 00:19:42;;;;;;;10.87;3.97;;;10.80;99.90;;;;;;4992923;28;20464;-64
2023/05/30 00:22:10;;;;;;;10.17;4.93;;;10.70;99.90;;;;;;4990565;28;20495;-64
2023/05/30 00:24:38;;;;;;;8.73;3.80;;;10.70;99.90;;;;;;4994939;28;21028;-64
2023/05/30 00:27:07;;;;;;;9.90;4.10;;;10.70;99.90;;;;;;4980066;28;20492;-62
2023/05/30 00:29:35;;;;;;;8.17;4.10;;;10.70;99.90;;;;;;4989473;28;20477;-64
2023/05/30 00:32:03;;;;;;;8.27;4.50;;;10.70;99.90;;;;;;4991596;28;20510;-64
2023/05/30 00:34:33;;;;;;;10.23;4.87;;;10.70;99.90;;;;;;4992186;28;20482;-63
2023/05/30 00:37:00;;;;;;;10.27;4.20;;;10.60;99.90;;;;;;4993804;28;21004;-64
2023/05/30 00:39:28;;;;;;;7.30;3.93;;;10.50;99.90;;;;;;4996401;28;20559;-64
2023/05/30 00:41:56;;;;;;;20.60;4.47;;;10.40;99.90;;;;;;4993044;28;20608;-64
2023/05/30 00:44:24;;;;;;;7.03;4.00;;;10.40;99.90;;;;;;4993190;28;20473;-64
2023/05/30 00:46:53;;;;;;;7.03;3.80;;;10.40;99.90;;;;;;4998804;28;20583;-64
2023/05/30 00:49:22;;;;;;;9.77;4.17;;;10.40;99.90;;;;;;5000108;28;20479;-65
2023/05/30 00:51:52;;;;;;;10.27;3.90;;;10.40;99.90;;;;;;4997615;28;20487;-64
2023/05/30 00:54:21;;;;;;;9.37;4.50;;;10.40;99.90;;;;;;4998998;28;20474;-63
2023/05/30 00:56:50;;;;;;;7.87;4.17;;;10.30;99.90;;;;;;4996881;28;20493;-64
2023/05/30 00:59:18;;;;;;;7.73;4.37;;;10.30;99.90;;;;;;4994849;28;20550;-64
2023/05/30 01:01:46;;;;;;;10.00;4.17;;;10.20;99.90;;;;;;4997849;28;20502;-63
2023/05/30 01:04:15;;;;;;;7.57;4.60;;;10.20;99.90;;;;;;4997592;28;20477;-63
2023/05/30 01:06:46;;;;;;;9.60;3.80;;;10.20;99.90;;;;;;4998010;28;20499;-64
2023/05/30 01:09:15;;;;;;;6.70;3.43;;;10.20;99.90;;;;;;4999227;28;20480;-64
2023/05/30 01:11:54;;;;;;;9.67;3.80;;;10.20;99.90;;;;;;4997677;28;20492;-64
2023/05/30 01:14:27;;;;;;;10.00;3.67;;;10.20;99.90;;;;;;4999429;28;20504;-64
2023/05/30 01:17:03;;;;;;;7.60;3.80;;;10.20;99.90;;;;;;4994124;28;20688;-64
2023/05/30 01:20:05;;;;;;;9.33;4.40;;;10.20;99.90;;;;;;5002219;28;20850;-64
2023/05/30 01:22:42;;;;;;;7.30;3.60;;;10.20;99.90;;;;;;4991874;28;20492;-64
2023/05/30 01:25:32;;;;;;;8.07;3.87;;;10.20;99.90;;;;;;4993041;28;20475;-64
2023/05/30 01:28:10;;;;;;;8.70;3.93;;;10.20;99.90;;;;;;4996918;28;20582;-63
2023/05/30 01:30:41;;;;;;;9.60;3.90;;;10.10;99.90;;;;;;4990432;28;20893;-64
2023/05/30 01:33:10;;;;;;;7.93;3.50;;;10.10;99.90;;;;;;4987747;28;20622;-64
2023/05/30 01:35:41;;;;;;;6.33;3.80;;;10.10;99.90;;;;;;4987380;28;20842;-64
2023/05/30 01:38:09;;;;;;;6.30;3.30;;;10.10;99.90;;;;;;4994036;28;20465;-64
2023/05/30 01:40:38;;;;;;;7.63;3.67;;;10.10;99.90;;;;;;4992581;28;20469;-64
2023/05/30 01:43:14;;;;;;;11.17;4.20;;;10.10;99.90;;;;;;4996430;28;20498;-64
2023/05/30 01:45:51;;;;;;;7.97;3.60;;;10.10;99.90;;;;;;4993605;28;20483;-64
2023/05/30 01:48:26;;;;;;;9.50;4.40;;;10.00;99.90;;;;;;4994629;28;20488;-64
2023/05/30 01:50:56;;;;;;;8.03;3.60;;;10.00;99.90;;;;;;4992181;28;20559;-64
2023/05/30 01:53:30;;;;;;;7.93;3.77;;;10.00;99.90;;;;;;4996711;28;20828;-63
2023/05/30 01:56:01;;;;;;;6.70;3.60;;;10.00;99.90;;;;;;4994602;28;20992;-64
2023/05/30 01:58:35;;;;;;;7.47;3.70;;;9.90;99.90;;;;;;4998067;28;20985;-64
2023/05/30 02:01:05;;;;;;;8.30;3.97;;;9.90;99.90;;;;;;4992266;28;20484;-64
2023/05/30 02:03:33;;;;;;;9.17;3.87;;;9.90;99.90;;;;;;4994141;28;20504;-63
2023/05/30 02:06:01;;;;;;;7.97;3.90;;;9.90;99.90;;;;;;4993359;28;20563;-64
2023/05/30 02:08:29;;;;;;;7.03;3.47;;;9.90;99.90;;;;;;4990517;28;23451;-64
2023/05/30 02:10:57;;;;;;;6.90;4.00;;;9.80;99.90;;;;;;4997094;28;20477;-64
2023/05/30 02:13:26;;;;;;;6.30;4.20;;;9.80;99.90;;;;;;4995765;28;20556;-64
2023/05/30 02:15:55;;;;;;;7.00;3.30;;;9.80;99.90;;;;;;4997832;28;20894;-64
2023/05/30 02:18:27;;;;;;;8.07;3.73;;;9.80;99.90;;;;;;4991956;28;20552;-64
2023/05/30 02:20:55;;;;;;;7.77;3.63;;;9.90;99.90;;;;;;4993023;28;20492;-64
2023/05/30 02:23:23;;;;;;;7.43;3.90;;;9.80;99.90;;;;;;4989375;28;20509;-64
2023/05/30 02:25:51;;;;;;;8.57;3.60;;;9.80;99.90;;;;;;4994777;28;20575;-63
2023/05/30 02:28:19;;;;;;;4.97;3.50;;;9.90;99.90;;;;;;4995086;28;20494;-64
2023/05/30 02:30:47;;;;;;;9.43;3.57;;;9.80;99.90;;;;;;4994888;28;20917;-63
2023/05/30 02:33:17;;;;;;;8.40;3.57;;;9.80;99.90;;;;;;4994372;28;20499;-64
2023/05/30 02:35:45;;;;;;;10.60;4.27;;;9.80;99.90;;;;;;4997371;28;20504;-62
2023/05/30 02:38:13;;;;;;;8.03;4.03;;;9.80;99.90;;;;;;4993489;28;20472;-64
2023/05/30 02:40:41;;;;;;;8.43;3.43;;;9.80;99.90;;;;;;4996823;28;20497;-64
2023/05/30 02:43:09;;;;;;;7.37;4.17;;;9.80;99.90;;;;;;4992441;28;20544;-64
2023/05/30 02:45:47;;;;;;;5.83;3.50;;;9.80;99.90;;;;;;4994104;28;20481;-64
2023/05/30 02:48:17;;;;;;;7.60;4.20;;;9.70;99.90;;;;;;5004274;28;20494;-64
2023/05/30 02:50:45;;;;;;;8.43;3.80;;;9.70;99.90;;;;;;5003821;28;20579;-64
2023/05/30 02:53:13;;;;;;;7.67;4.00;;;9.70;99.90;;;;;;5000908;28;20523;-64
2023/05/30 02:55:42;;;;;;;7.43;4.10;;;9.70;99.90;;;;;;5000617;28;20512;-63
2023/05/30 02:58:11;;;;;;;7.70;3.80;;;9.70;99.90;;;;;;5003590;28;20898;-64
2023/05/30 03:00:39;;;;;;;8.57;4.10;;;9.60;99.90;;;;;;5001623;28;20479;-64
2023/05/30 03:03:09;;;;;;;6.70;4.20;;;9.60;99.90;;;;;;5002353;28;20952;-64
2023/05/30 03:05:38;;;;;;;7.07;3.77;;;9.50;99.90;;;;;;4999196;28;20591;-63
2023/05/30 03:08:06;;;;;;;9.53;4.97;;;9.50;99.90;;;;;;5003046;28;21077;-64
2023/05/30 03:10:52;;;;;;;9.90;4.70;;;9.50;99.90;;;;;;5001912;28;20478;-64
2023/05/30 03:13:20;;;;;;;6.43;3.97;;;9.50;99.90;;;;;;4999428;28;20567;-64
2023/05/30 03:15:48;;;;;;;9.80;4.43;;;9.40;99.90;;;;;;4998149;28;20567;-64
2023/05/30 03:18:16;;;;;;;6.13;3.53;;;9.50;99.90;;;;;;5002284;28;20468;-64
2023/05/30 03:20:46;;;;;;;7.77;3.97;;;9.50;99.90;;;;;;5001970;28;20523;-64
2023/05/30 03:23:14;;;;;;;7.03;4.07;;;9.50;99.90;;;;;;5000986;28;20510;-64
2023/05/30 03:25:42;;;;;;;7.87;4.43;;;9.50;99.90;;;;;;4997606;28;20544;-64
2023/05/30 03:28:10;;;;;;;12.17;4.57;;;9.50;99.90;;;;;;5003253;28;20487;-64
2023/05/30 03:30:38;;;;;;;9.07;4.40;;;9.50;99.90;;;;;;4997459;28;20468;-64
2023/05/30 03:33:06;;;;;;;8.07;4.63;;;9.40;99.90;;;;;;4996690;28;20648;-64
2023/05/30 03:35:34;;;;;;;11.33;4.40;;;9.40;99.90;;;;;;4999338;28;20479;-64
2023/05/30 03:38:04;;;;;;;15.80;4.80;;;9.40;99.90;;;;;;4998075;28;20468;-64
2023/05/30 03:40:32;;;;;;;6.80;3.97;;;9.40;99.90;;;;;;5001391;28;20530;-64
2023/05/30 03:43:00;;;;;;;5.10;3.23;;;9.40;99.90;;;;;;4995427;28;20508;-64
2023/05/30 03:45:28;;;;;;;8.20;4.60;;;9.50;99.90;;;;;;4997345;28;20477;-64
2023/05/30 03:47:56;;;;;;;6.23;4.10;;;9.50;99.90;;;;;;4992546;28;20490;-63
2023/05/30 03:50:24;;;;;;;7.13;3.80;;;9.50;99.90;;;;;;4997535;28;20632;-64
2023/05/30 03:52:52;;;;;;;8.30;4.30;;;9.50;99.90;;;;;;4998552;28;20603;-64
2023/05/30 03:55:21;;;;;;;6.37;4.00;;;9.60;99.90;;;;;;5000117;28;20476;-64
2023/05/30 03:57:49;;;;;;;9.27;4.23;;;9.70;99.90;;;;;;4994441;28;20487;-64
2023/05/30 04:00:18;;;;;;;6.40;4.10;;;9.80;99.90;;;;;;5001569;28;20990;-65
2023/05/30 04:02:46;;;;;;;9.10;4.50;;;9.90;99.90;;;;;;4998805;28;20504;-63
2023/05/30 04:05:14;;;;;;;9.23;4.50;;;10.00;99.90;;;;;;4996691;28;20469;-63
2023/05/30 04:07:42;;;;;;;9.67;4.17;;;10.00;99.90;;;;;;4997441;28;20567;-63
2023/05/30 04:10:10;;;;;;;7.03;4.90;;;10.10;99.90;;;;;;4998586;28;20560;-67
2023/05/30 04:12:40;;;;;;;14.23;4.17;;;10.00;99.90;;;;;;4998531;28;20519;-63
2023/05/30 04:15:08;;;;;;;7.43;4.80;;;10.10;99.90;;;;;;4995359;28;20631;-64
2023/05/30 04:17:36;;;;;;;7.67;4.23;;;10.10;99.90;;;;;;4996334;28;20477;-64
2023/05/30 04:20:08;;;;;;;7.80;4.80;;;10.00;99.90;;;;;;4991609;28;20461;-64
2023/05/30 04:22:36;;;;;;;8.20;4.27;;;10.10;99.90;;;;;;4998423;28;20496;-63
2023/05/30 04:25:05;;;;;;;11.73;4.90;;;10.10;99.90;;;;;;4994636;28;20560;-64
2023/05/30 04:27:34;;;;;;;9.33;5.07;;;10.10;99.90;;;;;;4992016;28;20944;-63
2023/05/30 04:30:04;;;;;;;6.60;4.40;;;10.20;99.90;;;;;;5000985;28;20556;-64
2023/05/30 04:32:33;;;;;;;10.53;4.30;;;10.20;99.90;;;;;;4991289;28;20595;-64
2023/05/30 04:35:02;;;;;;;10.40;4.60;;;10.20;99.90;;;;;;4995921;28;20476;-64
2023/05/30 04:37:30;;;;;;;12.50;4.87;;;10.30;99.90;;;;;;4997370;28;20523;-64
2023/05/30 04:39:58;;;;;;;7.43;4.90;;;10.30;99.90;;;;;;5000354;28;20980;-66
2023/05/30 04:42:27;;;;;;;11.77;5.33;;;10.40;99.90;;;;;;4992940;28;20496;-64
2023/05/30 04:44:55;;;;;;;11.93;5.43;;;10.50;99.90;;;;;;4996623;28;21638;-63
2023/05/30 04:47:25;;;;;;;9.20;5.23;;;10.50;99.90;;;;;;4995527;28;20500;-64
2023/05/30 04:49:54;;;;;;;11.20;5.23;;;10.50;99.90;;;;;;4991666;28;20496;-64
2023/05/30 04:52:23;;;;;;;13.83;5.47;;;10.40;99.90;;;;;;4992096;28;20500;-64
2023/05/30 04:54:52;;;;;;;11.00;5.50;;;10.50;99.90;;;;;;4997311;28;20484;-64
2023/05/30 04:57:20;;;;;;;9.70;5.37;;;10.50;99.90;;;;;;4998671;28;20473;-64
2023/05/30 04:59:48;;;;;;;10.00;5.57;;;10.50;99.90;;;;;;4990041;28;20480;-64
2023/05/30 05:02:17;;;;;;;13.07;6.10;;;10.60;99.90;;;;;;4993952;28;20523;-64
2023/05/30 05:04:46;;;;;;;8.80;5.60;;;10.60;99.90;;;;;;4995621;28;20479;-64
2023/05/30 05:07:14;;;;;;;11.00;6.37;;;10.70;99.90;;;;;;4986186;28;20530;-63
2023/05/30 05:09:42;;;;;;;8.90;5.30;;;10.80;99.90;;;;;;4992462;28;21024;-64
2023/05/30 05:12:13;;;;;;;11.97;5.97;;;10.80;99.90;;;;;;4994536;28;20500;-63
2023/05/30 05:14:42;;;;;;;11.93;6.57;;;10.80;99.90;;;;;;4992741;28;20571;-63
2023/05/30 05:17:10;;;;;;;9.80;5.67;;;10.80;99.90;;;;;;4991463;28;20799;-63
2023/05/30 05:19:39;;;;;;;10.23;6.23;;;10.80;99.90;;;;;;4982609;28;20477;-65
2023/05/30 05:22:08;;;;;;;17.53;6.40;;;10.90;99.90;;;;;;4978075;28;20497;-64
2023/05/30 05:24:36;;;;;;;10.00;5.60;;;10.90;99.90;;;;;;4982833;28;20470;-70
2023/05/30 05:27:05;;;;;;;11.70;5.80;;;10.90;99.90;;;;;;4975620;28;20962;-64
2023/05/30 05:29:33;;;;;;;11.40;5.50;;;10.90;99.90;;;;;;4983240;28;20496;-65
2023/05/30 05:32:01;;;;;;;12.73;5.87;;;10.90;99.90;;;;;;4985633;28;20500;-64
2023/05/30 05:34:29;;;;;;;9.60;5.97;;;10.90;99.90;;;;;;4989662;28;20924;-64
2023/05/30 05:36:57;;;;;;;10.23;6.43;;;11.00;99.90;;;;;;4991046;28;20472;-64
2023/05/30 05:39:26;;;;;;;10.60;6.10;;;11.00;99.90;;;;;;4997397;28;20928;-63
2023/05/30 05:41:54;;;;;;;10.10;5.60;;;11.00;99.90;;;;;;4990907;28;21098;-64
2023/05/30 05:44:22;;;;;;;10.00;5.87;;;11.00;99.90;;;;;;4990925;28;20480;-63
2023/05/30 05:46:51;;;;;;;8.63;5.73;;;11.00;99.90;;;;;;4996353;28;20468;-64
2023/05/30 05:49:19;;;;;;;11.43;6.37;;;11.00;99.90;;;;;;4995999;28;20623;-64
2023/05/30 05:51:48;;;;;;;9.30;5.20;;;11.10;99.90;;;;;;4992274;28;20500;-63
2023/05/30 05:54:16;;;;;;;14.60;6.47;;;11.10;99.90;;;;;;4995591;28;20916;-64
2023/05/30 05:56:46;;;;;;;8.57;6.20;;;11.20;99.90;;;;;;4995082;28;20500;-63
2023/05/30 05:59:15;;;;;;;12.10;6.50;;;11.30;99.90;;;;;;4995966;28;20469;-64
2023/05/30 06:01:43;;;;;;;8.47;6.00;;;11.30;99.90;;;;;;4993420;28;20504;-64
2023/05/30 06:04:12;;;;;;;11.47;5.33;;;11.30;99.90;;;;;;4993666;28;20993;-63
2023/05/30 06:06:40;;;;;;;12.03;5.67;;;11.30;99.90;;;;;;4988249;28;20972;-64
2023/05/30 06:09:08;;;;;;;8.23;5.33;;;11.30;99.90;;;;;;4993771;28;20518;-64
2023/05/30 06:11:36;;;;;;;16.37;6.13;;;11.40;99.90;;;;;;4995380;28;21043;-64
2023/05/30 06:14:06;;;;;;;9.70;5.73;;;11.40;99.90;;;;;;4998570;28;20501;-65
2023/05/30 06:16:33;;;;;;;8.90;6.43;;;11.40;99.90;;;;;;4989233;28;20491;-63
2023/05/30 06:19:02;;;;;;;11.60;6.20;;;11.40;99.90;;;;;;4995354;28;20607;-64
2023/05/30 06:21:30;;;;;;;9.80;6.00;;;11.50;99.90;;;;;;4988726;28;20860;-64
2023/05/30 06:23:59;;;;;;;10.00;5.27;;;11.50;99.90;;;;;;4990760;28;21008;-65
2023/05/30 06:26:27;;;;;;;12.37;6.07;;;11.40;99.90;;;;;;4993270;28;21066;-64
2023/05/30 06:28:55;;;;;;;7.83;5.73;;;11.50;99.90;;;;;;4989310;28;20475;-63
2023/05/30 06:31:24;;;;;;;8.13;5.70;;;11.50;99.90;;;;;;4993660;28;20495;-63
2023/05/30 06:33:52;;;;;;;9.40;5.40;;;11.60;99.90;;;;;;4998247;28;20925;-64
2023/05/30 06:36:20;;;;;;;11.07;5.33;;;11.60;99.90;;;;;;4991692;28;20849;-64
2023/05/30 06:38:51;;;;;;;8.10;5.67;;;11.70;99.90;;;;;;4994920;28;20476;-64
2023/05/30 06:41:19;;;;;;;11.77;6.97;;;11.80;99.90;;;;;;4997136;28;20515;-64
2023/05/30 06:43:47;;;;;;;9.03;5.73;;;11.80;99.90;;;;;;4991707;28;20483;-64
2023/05/30 06:46:15;;;;;;;9.13;5.87;;;11.90;99.90;;;;;;4996720;28;20468;-64
2023/05/30 06:48:45;;;;;;;11.33;6.50;;;12.00;99.90;;;;;;5002270;28;20957;-64
2023/05/30 06:51:13;;;;;;;9.40;5.60;;;12.00;99.90;;;;;;5000232;28;20559;-65
2023/05/30 06:53:41;;;;;;;10.80;5.10;;;12.00;99.90;;;;;;5000312;28;20476;-64
2023/05/30 06:56:09;;;;;;;10.03;5.97;;;12.00;99.90;;;;;;4996933;28;20468;-65
2023/05/30 06:58:37;;;;;;;12.40;6.57;;;11.90;99.90;;;;;;4995158;28;20511;-65
2023/05/30 07:01:05;;;;;;;7.53;5.23;;;11.90;99.90;;;;;;4995837;28;20488;-65
2023/05/30 07:03:33;;;;;;;6.53;5.20;;;12.00;99.90;;;;;;4998819;28;20494;-64
2023/05/30 07:06:03;;;;;;;11.30;6.07;;;12.00;99.90;;;;;;4998060;28;20501;-64
2023/05/30 07:08:31;;;;;;;9.73;5.13;;;12.10;99.90;;;;;;5001032;28;20602;-65
2023/05/30 07:10:59;;;;;;;10.17;5.47;;;12.10;99.90;;;;;;5007757;28;20483;-65
2023/05/30 07:13:27;;;;;;;8.80;5.40;;;12.10;99.90;;;;;;5017137;28;20475;-65
2023/05/30 07:15:55;;;;;;;8.87;5.10;;;12.20;99.90;;;;;;5005568;28;20575;-65
2023/05/30 07:18:23;;;;;;;7.40;4.50;;;12.20;99.90;;;;;;5001817;28;20987;-65
2023/05/30 07:20:51;;;;;;;10.93;4.90;;;12.20;99.90;;;;;;4998786;28;21108;-65
2023/05/30 07:23:20;;;;;;;8.97;5.00;;;12.30;99.90;;;;;;4991333;28;20464;-65
2023/05/30 07:25:48;;;;;;;8.17;4.93;;;12.20;99.90;;;;;;4996594;28;20526;-65
2023/05/30 07:28:16;;;;;;;7.03;5.20;;;12.20;99.90;;;;;;4997005;28;20883;-65
2023/05/30 07:30:45;;;;;;;7.10;4.93;;;12.20;99.90;;;;;;5014463;28;20527;-65
2023/05/30 07:33:13;;;;;;;7.67;4.87;;;12.30;99.90;;;;;;5014294;28;20594;-64
2023/05/30 07:35:41;;;;;;;10.87;6.10;;;12.40;99.90;;;;;;5016993;28;20468;-69
2023/05/30 07:38:10;;;;;;;7.20;5.77;;;12.30;99.90;;;;;;5023184;28;20480;-69
2023/05/30 07:40:39;;;;;;;8.70;6.00;;;12.30;99.90;;;;;;5021888;28;20469;-69
2023/05/30 07:43:07;;;;;;;10.77;6.00;;;12.40;99.90;;;;;;5019491;28;20476;-69
2023/05/30 07:45:35;;;;;;;9.57;6.10;;;12.30;99.90;;;;;;5023471;28;20495;-67
2023/05/30 07:48:05;;;;;;;7.53;5.50;;;12.30;99.90;;;;;;5017466;28;20504;-68
2023/05/30 07:50:33;;;;;;;10.50;6.03;;;12.30;99.90;;;;;;4998272;28;20506;-68
2023/05/30 07:53:01;;;;;;;8.20;6.07;;;12.20;99.90;;;;;;4997562;28;20520;-68
2023/05/30 07:55:30;;;;;;;7.40;6.23;;;12.20;99.90;;;;;;4996669;28;20988;-68
2023/05/30 07:57:59;;;;;;;9.20;6.00;;;12.30;99.90;;;;;;4997699;28;20493;-65
2023/05/30 08:00:27;;;;;;;7.77;5.63;;;12.40;99.90;;;;;;4997874;28;20469;-64
2023/05/30 08:02:55;;;;;;;8.90;5.67;;;12.30;99.90;;;;;;4992880;28;20524;-68
2023/05/30 08:05:23;;;;;;;13.43;6.10;;;12.40;99.90;;;;;;4996702;28;20476;-69
2023/05/30 08:07:52;;;;;;;8.67;5.70;;;12.40;99.90;;;;;;5000381;28;21002;-68
2023/05/30 08:10:20;;;;;;;9.40;6.07;;;12.50;99.90;;;;;;4998763;28;21172;-69
2023/05/30 08:12:49;;;;;;;7.10;5.30;;;12.50;99.90;;;;;;4995028;28;20547;-68
2023/05/30 08:15:19;;;;;;;6.97;5.57;;;12.50;99.90;;;;;;4998920;28;20485;-69
2023/05/30 08:17:47;;;;;;;6.70;5.23;;;12.60;99.90;;;;;;5000457;28;20520;-70
2023/05/30 08:20:16;;;;;;;7.10;4.80;;;12.70;99.90;;;;;;4994230;28;21001;-71
2023/05/30 08:22:44;;;;;;;6.30;5.47;;;12.70;99.90;;;;;;4997465;28;20516;-69
2023/05/30 08:25:12;;;;;;;7.47;5.50;;;12.70;99.90;;;;;;4994227;28;20480;-69
2023/05/30 08:27:42;;;;;;;6.70;5.07;;;12.80;99.90;;;;;;4991920;28;21067;-69
2023/05/30 08:30:11;;;;;;;5.67;5.00;;;12.70;99.90;;;;;;4995539;28;20563;-69
2023/05/30 08:32:40;;;;;;;6.50;5.60;;;12.80;99.90;;;;;;4996797;28;20507;-70
2023/05/30 08:35:09;;;;;;;8.00;4.80;;;12.80;99.90;;;;;;5001701;28;20626;-70
2023/05/30 08:37:37;;;;;;;6.47;5.10;;;12.80;99.90;;;;;;4998297;28;20556;-69
2023/05/30 08:40:07;;;;;;;9.60;4.90;;;12.80;99.90;;;;;;4998006;28;20555;-68
2023/05/30 08:42:37;;;;;;;8.10;4.50;;;12.90;99.90;;;;;;4997035;28;20853;-68
2023/05/30 08:45:06;;;;;;;6.00;4.40;;;12.90;99.90;;;;;;4997180;28;20753;-69
2023/05/30 08:47:35;;;;;;;7.57;4.90;;;12.90;99.90;;;;;;4997651;28;20954;-69
2023/05/30 08:50:07;;;;;;;7.90;4.87;;;13.00;99.90;;;;;;5000323;28;20623;-70
2023/05/30 08:52:39;;;;;;;7.27;4.67;;;13.00;99.90;;;;;;4998173;28;20507;-70
2023/05/30 08:55:12;;;;;;;7.33;4.80;;;13.00;99.90;;;;;;4995683;28;20508;-73
2023/05/30 08:57:47;;;;;;;8.97;4.60;;;13.00;99.90;;;;;;4998001;28;20499;-71
2023/05/30 09:00:17;;;;;;;5.80;4.70;;;12.90;99.90;;;;;;5000776;28;20546;-71
2023/05/30 09:02:46;;;;;;;6.77;4.73;;;12.90;99.90;;;;;;4994233;28;20948;-71
2023/05/30 09:05:17;;;;;;;7.03;5.00;;;13.00;99.90;;;;;;4997513;28;20477;-71
2023/05/30 09:07:45;;;;;;;6.73;5.00;;;13.00;99.90;;;;;;4998797;28;20484;-69
2023/05/30 09:10:13;;;;;;;6.87;5.33;;;13.00;99.90;;;;;;4992912;28;20472;-71
2023/05/30 09:12:42;;;;;;;6.60;5.00;;;13.00;99.90;;;;;;4996941;28;20588;-70
2023/05/30 09:15:11;;;;;;;10.53;5.23;;;13.10;99.90;;;;;;4993610;28;20475;-70
2023/05/30 09:17:39;;;;;;;7.20;4.90;;;13.10;99.90;;;;;;4997122;28;20476;-69
2023/05/30 09:20:08;;;;;;;7.70;5.00;;;13.10;99.90;;;;;;4991097;28;20827;-69
2023/05/30 09:22:38;;;;;;;5.60;4.73;;;13.10;99.90;;;;;;4994687;28;20520;-69
2023/05/30 09:25:08;;;;;;;9.73;5.20;;;13.10;99.90;;;;;;4993940;28;20826;-72
2023/05/30 09:27:38;;;;;;;7.17;4.90;;;13.20;99.90;;;;;;4993804;28;20978;-71
2023/05/30 09:30:10;;;;;;;8.10;5.30;;;13.20;99.90;;;;;;4991955;28;20500;-66
2023/05/30 09:32:38;;;;;;;5.60;4.67;;;13.30;99.90;;;;;;4989605;28;21070;-65
2023/05/30 09:35:09;;;;;;;7.57;4.70;;;13.40;99.90;;;;;;5000174;28;20481;-66
2023/05/30 09:37:41;;;;;;;11.10;5.30;;;13.40;99.90;;;;;;4994385;28;20511;-65
2023/05/30 09:40:11;;;;;;;7.20;5.20;;;13.50;99.90;;;;;;4988834;28;21021;-66
2023/05/30 09:42:40;;;;;;;7.40;5.43;;;13.50;99.90;;;;;;4992090;28;20585;-65
2023/05/30 09:45:10;;;;;;;10.30;5.57;;;13.60;99.90;;;;;;4994800;28;20479;-66
2023/05/30 09:47:40;;;;;;;7.37;4.97;;;13.60;99.90;;;;;;4987438;28;20556;-65
2023/05/30 09:50:09;;;;;;;7.73;5.20;;;13.70;99.90;;;;;;4996791;28;20560;-66
2023/05/30 09:52:40;;;;;;;9.53;5.00;;;13.70;99.90;;;;;;4995979;28;20535;-67
2023/05/30 09:55:09;;;;;;;7.03;5.40;;;13.70;99.90;;;;;;4994091;28;20497;-66
2023/05/30 09:57:39;;;;;;;7.27;4.97;;;13.80;99.90;;;;;;4991163;28;20479;-66
2023/05/30 10:00:11;;;;;;;8.93;5.63;;;13.80;99.90;;;;;;4990877;28;20485;-64
2023/05/30 10:02:40;;;;;;;7.57;4.90;;;13.80;99.90;;;;;;4988931;28;20583;-66
2023/05/30 10:05:19;;;;;;;9.27;5.17;;;13.90;99.90;;;;;;4996236;28;20997;-66
2023/05/30 10:07:49;;;;;;;7.50;5.10;;;13.80;99.90;;;;;;4993434;28;20538;-66
2023/05/30 10:10:18;;;;;;;9.47;5.23;;;13.90;99.90;;;;;;4995535;28;20465;-66
2023/05/30 10:12:49;;;;;;;8.40;5.00;;;13.90;99.90;;;;;;4993859;28;20492;-66
2023/05/30 10:15:18;;;;;;;9.30;5.20;;;14.00;99.90;;;;;;4996883;28;20866;-66
2023/05/30 10:17:50;;;;;;;6.20;5.60;;;14.00;99.90;;;;;;4997169;28;20468;-66
2023/05/30 10:20:22;;;;;;;7.93;5.23;;;14.10;99.90;;;;;;4988507;28;20903;-73
2023/05/30 10:22:53;;;;;;;6.67;4.77;;;14.20;99.90;;;;;;4999520;28;20497;-71
2023/05/30 10:25:22;;;;;;;5.30;4.37;;;14.20;99.90;;;;;;5002825;28;20468;-70
2023/05/30 10:27:53;;;;;;;8.70;5.10;;;14.20;99.90;;;;;;5000678;28;20526;-72
2023/05/30 10:30:24;;;;;;;7.03;4.50;;;14.20;99.90;;;;;;4997372;28;20609;-72
2023/05/30 10:33:01;;;;;;;6.53;4.60;;;14.30;99.90;;;;;;4997860;28;20512;-72
2023/05/30 10:35:30;;;;;;;5.93;4.83;;;14.40;99.90;;;;;;4994610;28;20566;-72
2023/05/30 10:38:04;;;;;;;5.93;4.37;;;14.30;99.90;;;;;;4996860;28;21247;-73
2023/05/30 10:40:44;;;;;;;5.37;4.87;;;14.40;99.90;;;;;;4998601;28;20502;-71
2023/05/30 10:43:25;;;;;;;6.40;5.37;;;14.40;99.90;;;;;;4996359;28;20935;-71
2023/05/30 10:46:10;;;;;;;5.20;4.47;;;14.50;99.90;;;;;;4991238;28;21006;-73
2023/05/30 10:48:46;;;;;;;6.80;4.93;;;14.40;99.90;;;;;;4990455;28;20476;-72
2023/05/30 10:51:15;;;;;;;5.43;4.93;;;14.40;99.90;;;;;;4993453;28;20484;-71
2023/05/30 10:53:46;;;;;;;5.43;4.50;;;14.50;99.90;;;;;;4996700;28;20568;-72
2023/05/30 10:56:39;;;;;;;5.30;4.80;;;14.50;99.90;;;;;;4996064;28;20573;-73
2023/05/30 10:59:14;;;;;;;7.97;5.00;;;14.50;99.90;;;;;;4986984;28;20594;-73
2023/05/30 11:01:42;;;;;;;5.63;5.03;;;14.50;99.90;;;;;;4985665;28;20515;-73
2023/05/30 11:04:12;;;;;;;7.20;4.83;;;14.50;99.90;;;;;;4984919;28;20471;-73
2023/05/30 11:06:45;;;;;;;10.13;5.67;;;14.40;99.90;;;;;;4995729;28;20498;-72
2023/05/30 11:09:15;;;;;;;7.77;4.93;;;14.40;99.90;;;;;;4997966;28;20480;-73
2023/05/30 11:11:45;;;;;;;6.27;4.70;;;14.50;99.90;;;;;;4993734;28;20500;-73
2023/05/30 11:14:15;;;;;;;7.07;5.37;;;14.50;99.90;;;;;;4995875;28;20468;-71
2023/05/30 11:16:50;;;;;;;6.53;5.10;;;14.60;99.90;;;;;;5000056;28;20480;-71
2023/05/30 11:19:20;;;;;;;7.20;5.10;;;14.70;99.90;;;;;;5000128;28;21050;-71
2023/05/30 11:21:59;;;;;;;5.33;4.80;;;14.80;99.90;;;;;;4996105;28;20935;-71
2023/05/30 11:24:30;;;;;;;5.83;4.97;;;14.80;99.90;;;;;;4996530;28;20575;-64
2023/05/30 11:27:00;;;;;;;9.00;5.93;;;14.90;99.90;;;;;;4999391;28;21368;-69
2023/05/30 11:29:33;;;;;;;5.53;5.03;;;15.00;99.90;;;;;;5000678;28;20542;-71
2023/05/30 11:32:01;;;;;;;10.97;5.53;;;14.90;99.90;;;;;;4996278;28;20484;-71
2023/05/30 11:34:29;;;;;;;5.30;4.50;;;15.00;99.90;;;;;;4998216;28;20986;-71
2023/05/30 11:36:59;;;;;;;8.43;5.47;;;15.00;99.90;;;;;;5000336;28;20555;-71
2023/05/30 11:39:28;;;;;;;7.07;6.03;;;15.10;99.90;;;;;;4999513;28;21092;-71
2023/05/30 11:41:56;;;;;;;7.87;6.80;;;15.20;99.90;;;;;;4998115;28;20498;-71
2023/05/30 11:44:24;;;;;;;6.30;5.70;;;15.20;99.90;;;;;;5001370;28;20508;-71
2023/05/30 11:46:59;;;;;;;5.63;5.13;;;15.20;99.90;;;;;;4997367;28;20472;-69
2023/05/30 11:49:27;;;;;;;10.10;5.77;;;15.20;99.90;;;;;;4998378;28;20472;-71
2023/05/30 11:51:56;;;;;;;5.93;5.33;;;15.30;99.90;;;;;;4996435;28;20580;-69
2023/05/30 11:54:24;;;;;;;5.57;4.90;;;15.30;99.90;;;;;;4994564;28;20808;-71
2023/05/30 11:56:55;;;;;;;7.33;4.97;;;15.40;99.90;;;;;;4998330;28;20630;-70
2023/05/30 11:59:24;;;;;;;5.73;5.00;;;15.60;99.90;;;;;;4989962;28;20535;-71
2023/05/30 12:01:53;;;;;;;6.73;5.00;;;15.70;99.90;;;;;;4995543;28;20550;-70
2023/05/30 12:04:26;;;;;;;5.40;4.90;;;15.70;99.90;;;;;;4995989;28;20521;-69
2023/05/30 12:06:59;;;;;;;8.13;5.30;;;15.80;99.90;;;;;;4991371;28;21173;-70
2023/05/30 12:09:27;;;;;;;7.17;5.17;;;15.90;99.90;;;;;;4987069;28;21049;-70
2023/05/30 12:11:58;;;;;;;9.33;5.70;;;15.90;99.90;;;;;;4989327;28;20941;-71
2023/05/30 12:14:39;;;;;;;7.00;5.53;;;15.90;99.90;;;;;;4989217;28;20584;-71
2023/05/30 12:17:11;;;;;;;5.43;4.93;;;15.80;99.90;;;;;;4989335;28;20858;-71
2023/05/30 12:19:41;;;;;;;6.37;5.60;;;15.90;99.90;;;;;;4997617;28;20476;-70
2023/05/30 12:22:11;;;;;;;6.07;5.40;;;16.00;99.90;;;;;;4998859;28;20517;-72
2023/05/30 12:24:39;;;;;;;6.13;5.07;;;16.00;99.90;;;;;;4999154;28;20515;-73
2023/05/30 12:27:17;;;;;;;6.77;4.70;;;16.00;99.90;;;;;;4988732;28;20472;-73
2023/05/30 12:29:45;;;;;;;9.40;5.60;;;16.10;99.90;;;;;;4995171;28;20558;-66
2023/05/30 12:32:13;;;;;;;6.90;5.57;;;16.10;99.90;;;;;;4985596;28;20506;-69
2023/05/30 12:34:43;;;;;;;6.10;5.50;;;16.20;99.90;;;;;;4995252;28;21007;-67
2023/05/30 12:37:12;;;;;;;7.07;5.63;;;16.10;99.90;;;;;;4990710;28;20508;-68
2023/05/30 12:39:47;;;;;;;7.00;5.17;;;16.20;99.90;;;;;;4998409;28;20472;-72
2023/05/30 12:42:22;;;;;;;6.23;5.07;;;16.10;99.90;;;;;;5005582;28;20557;-72
2023/05/30 12:44:52;;;;;;;5.83;5.20;;;16.20;99.90;;;;;;5010936;28;20495;-72
2023/05/30 12:47:20;;;;;;;5.77;4.63;;;16.20;99.90;;;;;;5001462;28;20907;-68
2023/05/30 12:49:49;;;;;;;8.17;5.80;;;16.20;99.90;;;;;;4996207;28;20496;-69
2023/05/30 12:52:20;;;;;;;6.20;5.23;;;16.20;99.90;;;;;;4995437;28;20939;-70
2023/05/30 12:54:49;;;;;;;8.50;5.50;;;16.20;99.90;;;;;;4999700;28;20468;-70
2023/05/30 12:57:20;;;;;;;5.53;5.03;;;16.30;99.90;;;;;;4994617;28;20481;-71
2023/05/30 12:59:49;;;;;;;8.97;5.20;;;16.30;99.90;;;;;;4990995;28;20510;-69